sensor_id;sensor_type;location;lat;lon;timestamp;pressure;altitude;pressure_sealevel;temperature;humidity
77702;BME280;66868;42.708;23.404;2023-02-01T00:01:40;95248.75;;;1.37;83.93
77702;BME280;66868;42.708;23.404;2023-02-01T00:04:06;95251.13;;;1.43;83.90
77702;BME280;66868;42.708;23.404;2023-02-01T00:06:31;95230.22;;;1.08;84.86
77702;BME280;66868;42.708;23.404;2023-02-01T00:08:57;95258.13;;;1.25;84.72
77702;BME280;66868;42.708;23.404;2023-02-01T00:11:23;95256.44;;;1.26;84.59
77702;BME280;66868;42.708;23.404;2023-02-01T00:13:49;95238.97;;;1.27;84.57
77702;BME280;66868;42.708;23.404;2023-02-01T00:16:20;95230.84;;;1.19;84.31
77702;BME280;66868;42.708;23.404;2023-02-01T00:18:48;95248.00;;;1.33;84.39
77702;BME280;66868;42.708;23.404;2023-02-01T00:21:15;95255.69;;;1.22;84.87
77702;BME280;66868;42.708;23.404;2023-02-01T00:23:42;95254.94;;;1.19;84.93
77702;BME280;66868;42.708;23.404;2023-02-01T00:26:13;95231.16;;;1.04;85.16
77702;BME280;66868;42.708;23.404;2023-02-01T00:28:39;95245.91;;;1.13;84.97
77702;BME280;66868;42.708;23.404;2023-02-01T00:31:04;95226.09;;;1.07;84.50
77702;BME280;66868;42.708;23.404;2023-02-01T00:33:31;95244.88;;;1.23;84.95
77702;BME280;66868;42.708;23.404;2023-02-01T00:36:01;95230.50;;;0.96;85.07
77702;BME280;66868;42.708;23.404;2023-02-01T00:38:27;95220.34;;;1.05;85.05
77702;BME280;66868;42.708;23.404;2023-02-01T00:40:54;95232.56;;;1.16;85.17
77702;BME280;66868;42.708;23.404;2023-02-01T00:43:19;95234.44;;;1.06;84.91
77702;BME280;66868;42.708;23.404;2023-02-01T00:45:46;95213.97;;;0.92;84.63
77702;BME280;66868;42.708;23.404;2023-02-01T00:48:11;95232.97;;;0.96;84.43
77702;BME280;66868;42.708;23.404;2023-02-01T00:50:44;95215.56;;;0.93;84.61
77702;BME280;66868;42.708;23.404;2023-02-01T00:53:10;95235.41;;;0.99;84.26
77702;BME280;66868;42.708;23.404;2023-02-01T00:55:36;95225.63;;;0.90;84.45
77702;BME280;66868;42.708;23.404;2023-02-01T00:58:01;95233.72;;;1.00;84.36
77702;BME280;66868;42.708;23.404;2023-02-01T01:00:26;95211.41;;;0.95;83.32
77702;BME280;66868;42.708;23.404;2023-02-01T01:02:52;95232.09;;;0.99;83.67
77702;BME280;66868;42.708;23.404;2023-02-01T01:05:18;95234.63;;;0.97;82.59
77702;BME280;66868;42.708;23.404;2023-02-01T01:07:43;95215.09;;;0.76;83.61
77702;BME280;66868;42.708;23.404;2023-02-01T01:10:09;95228.03;;;0.93;83.02
77702;BME280;66868;42.708;23.404;2023-02-01T01:12:34;95224.78;;;0.89;82.35
77702;BME280;66868;42.708;23.404;2023-02-01T01:15:00;95230.56;;;0.92;82.88
77702;BME280;66868;42.708;23.404;2023-02-01T01:17:25;95213.41;;;0.78;82.44
77702;BME280;66868;42.708;23.404;2023-02-01T01:19:51;95232.06;;;1.00;81.45
77702;BME280;66868;42.708;23.404;2023-02-01T01:22:16;95210.72;;;0.87;81.35
77702;BME280;66868;42.708;23.404;2023-02-01T01:24:43;95218.94;;;0.92;81.60
77702;BME280;66868;42.708;23.404;2023-02-01T01:27:08;95218.16;;;0.88;81.25
77702;BME280;66868;42.708;23.404;2023-02-01T01:29:34;95230.63;;;0.88;81.69
77702;BME280;66868;42.708;23.404;2023-02-01T01:31:59;95234.75;;;0.89;81.46
77702;BME280;66868;42.708;23.404;2023-02-01T01:34:25;95238.06;;;0.90;81.27
77702;BME280;66868;42.708;23.404;2023-02-01T01:36:50;95241.47;;;0.86;81.16
77702;BME280;66868;42.708;23.404;2023-02-01T01:39:15;95227.47;;;0.80;80.85
77702;BME280;66868;42.708;23.404;2023-02-01T01:41:41;95231.03;;;0.67;81.50
77702;BME280;66868;42.708;23.404;2023-02-01T01:47:10;95245.88;;;0.73;81.35
77702;BME280;66868;42.708;23.404;2023-02-01T01:49:36;95247.63;;;0.68;81.11
77702;BME280;66868;42.708;23.404;2023-02-01T01:52:03;95241.94;;;0.62;80.91
77702;BME280;66868;42.708;23.404;2023-02-01T01:54:33;95237.66;;;0.68;80.17
77702;BME280;66868;42.708;23.404;2023-02-01T01:57:11;95243.56;;;0.63;79.96
77702;BME280;66868;42.708;23.404;2023-02-01T01:59:38;95187.75;;;0.28;79.93
77702;BME280;66868;42.708;23.404;2023-02-01T02:02:05;95240.50;;;0.49;79.86
77702;BME280;66868;42.708;23.404;2023-02-01T02:04:31;95224.16;;;0.34;80.31
77702;BME280;66868;42.708;23.404;2023-02-01T02:07:03;95239.81;;;0.40;79.71
77702;BME280;66868;42.708;23.404;2023-02-01T02:09:29;95234.09;;;0.35;80.15
77702;BME280;66868;42.708;23.404;2023-02-01T02:11:54;95237.53;;;0.28;80.37
77702;BME280;66868;42.708;23.404;2023-02-01T02:14:22;95239.34;;;0.20;80.48
77702;BME280;66868;42.708;23.404;2023-02-01T02:35:23;95225.31;;;0.15;79.70
77702;BME280;66868;42.708;23.404;2023-02-01T02:41:01;95221.84;;;0.25;79.45
77702;BME280;66868;42.708;23.404;2023-02-01T02:43:47;95234.34;;;0.20;80.00
77702;BME280;66868;42.708;23.404;2023-02-01T02:46:46;95217.66;;;0.27;79.55
77702;BME280;66868;42.708;23.404;2023-02-01T02:52:43;95232.69;;;0.22;79.58
77702;BME280;66868;42.708;23.404;2023-02-01T02:55:30;95216.09;;;0.21;79.73
77702;BME280;66868;42.708;23.404;2023-02-01T02:57:59;95226.00;;;0.24;79.74
77702;BME280;66868;42.708;23.404;2023-02-01T03:00:44;95179.88;;;0.05;79.72
77702;BME280;66868;42.708;23.404;2023-02-01T03:03:28;95223.63;;;0.18;80.58
77702;BME280;66868;42.708;23.404;2023-02-01T03:06:16;95230.13;;;0.27;80.87
77702;BME280;66868;42.708;23.404;2023-02-01T03:08:43;95236.69;;;0.31;80.42
77702;BME280;66868;42.708;23.404;2023-02-01T03:11:12;95227.63;;;0.25;81.48
77702;BME280;66868;42.708;23.404;2023-02-01T03:18:58;95246.38;;;0.44;79.65
77702;BME280;66868;42.708;23.404;2023-02-01T03:21:41;95250.41;;;0.52;78.93
77702;BME280;66868;42.708;23.404;2023-02-01T03:24:16;95263.59;;;0.57;79.34
77702;BME280;66868;42.708;23.404;2023-02-01T03:26:49;95243.66;;;0.58;78.36
77702;BME280;66868;42.708;23.404;2023-02-01T03:29:23;95260.16;;;0.64;78.73
77702;BME280;66868;42.708;23.404;2023-02-01T03:31:50;95244.56;;;0.54;78.58
77702;BME280;66868;42.708;23.404;2023-02-01T03:34:16;95261.03;;;0.61;78.21
77702;BME280;66868;42.708;23.404;2023-02-01T03:36:48;95278.50;;;0.60;78.82
77702;BME280;66868;42.708;23.404;2023-02-01T03:39:22;95262.75;;;0.58;78.87
77702;BME280;66868;42.708;23.404;2023-02-01T03:41:53;95255.34;;;0.55;78.72
77702;BME280;66868;42.708;23.404;2023-02-01T03:46:56;95249.50;;;0.56;78.90
77702;BME280;66868;42.708;23.404;2023-02-01T03:49:29;95246.88;;;0.63;78.61
77702;BME280;66868;42.708;23.404;2023-02-01T03:51:58;95249.22;;;0.71;78.17
77702;BME280;66868;42.708;23.404;2023-02-01T03:54:25;95205.84;;;0.38;78.41
77702;BME280;66868;42.708;23.404;2023-02-01T03:56:54;95233.25;;;0.36;78.85
77702;BME280;66868;42.708;23.404;2023-02-01T03:59:20;95235.59;;;0.44;78.87
77702;BME280;66868;42.708;23.404;2023-02-01T04:01:45;95247.78;;;0.59;78.98
77702;BME280;66868;42.708;23.404;2023-02-01T04:04:11;95222.66;;;0.25;77.59
77702;BME280;66868;42.708;23.404;2023-02-01T04:06:48;95259.38;;;0.60;77.50
77702;BME280;66868;42.708;23.404;2023-02-01T04:09:14;95251.94;;;0.59;77.07
77702;BME280;66868;42.708;23.404;2023-02-01T04:11:39;95246.88;;;0.65;77.11
77702;BME280;66868;42.708;23.404;2023-02-01T04:14:05;95251.75;;;0.69;76.52
77702;BME280;66868;42.708;23.404;2023-02-01T04:16:31;95246.63;;;0.77;76.77
77702;BME280;66868;42.708;23.404;2023-02-01T04:18:57;95257.34;;;0.80;76.27
77702;BME280;66868;42.708;23.404;2023-02-01T04:21:24;95248.28;;;0.78;76.49
77702;BME280;66868;42.708;23.404;2023-02-01T04:23:49;95242.47;;;0.77;75.96
77702;BME280;66868;42.708;23.404;2023-02-01T04:26:16;95258.91;;;0.87;75.62
77702;BME280;66868;42.708;23.404;2023-02-01T04:28:41;95241.50;;;0.84;75.58
77702;BME280;66868;42.708;23.404;2023-02-01T04:31:07;95259.69;;;0.88;75.75
77702;BME280;66868;42.708;23.404;2023-02-01T04:33:32;95244.91;;;0.79;75.41
77702;BME280;66868;42.708;23.404;2023-02-01T04:35:58;95267.63;;;1.08;75.88
77702;BME280;66868;42.708;23.404;2023-02-01T04:38:23;95257.66;;;1.08;76.02
77702;BME280;66868;42.708;23.404;2023-02-01T04:40:48;95254.31;;;1.09;75.35
77702;BME280;66868;42.708;23.404;2023-02-01T04:43:15;95265.69;;;1.21;74.95
77702;BME280;66868;42.708;23.404;2023-02-01T04:45:40;95241.19;;;1.01;75.55
77702;BME280;66868;42.708;23.404;2023-02-01T04:48:06;95260.03;;;1.13;75.74
77702;BME280;66868;42.708;23.404;2023-02-01T04:50:31;95259.53;;;0.97;75.98
77702;BME280;66868;42.708;23.404;2023-02-01T04:52:56;95268.56;;;1.03;76.36
77702;BME280;66868;42.708;23.404;2023-02-01T04:55:22;95259.97;;;1.16;76.27
77702;BME280;66868;42.708;23.404;2023-02-01T04:57:47;95271.81;;;1.06;76.06
77702;BME280;66868;42.708;23.404;2023-02-01T05:00:13;95281.75;;;1.08;76.37
77702;BME280;66868;42.708;23.404;2023-02-01T05:02:38;95272.41;;;1.17;76.12
77702;BME280;66868;42.708;23.404;2023-02-01T05:05:04;95278.13;;;1.22;75.93
77702;BME280;66868;42.708;23.404;2023-02-01T05:07:30;95275.56;;;1.25;76.09
77702;BME280;66868;42.708;23.404;2023-02-01T05:09:55;95282.38;;;1.17;76.39
77702;BME280;66868;42.708;23.404;2023-02-01T05:12:20;95278.25;;;1.16;76.79
77702;BME280;66868;42.708;23.404;2023-02-01T05:15:05;95290.19;;;1.01;77.66
77702;BME280;66868;42.708;23.404;2023-02-01T05:17:31;95304.16;;;1.09;78.14
77702;BME280;66868;42.708;23.404;2023-02-01T05:19:56;95287.56;;;1.08;78.61
77702;BME280;66868;42.708;23.404;2023-02-01T05:22:22;95296.66;;;1.11;79.66
77702;BME280;66868;42.708;23.404;2023-02-01T05:24:47;95281.06;;;1.01;80.02
77702;BME280;66868;42.708;23.404;2023-02-01T05:27:12;95294.94;;;1.14;79.74
77702;BME280;66868;42.708;23.404;2023-02-01T05:29:38;95292.53;;;1.10;80.13
77702;BME280;66868;42.708;23.404;2023-02-01T05:32:03;95287.44;;;1.14;80.42
77702;BME280;66868;42.708;23.404;2023-02-01T05:34:29;95308.03;;;1.24;80.37
77702;BME280;66868;42.708;23.404;2023-02-01T05:36:54;95299.53;;;1.32;79.12
77702;BME280;66868;42.708;23.404;2023-02-01T05:39:20;95308.84;;;1.24;79.35
77702;BME280;66868;42.708;23.404;2023-02-01T05:41:45;95284.47;;;0.97;79.41
77702;BME280;66868;42.708;23.404;2023-02-01T05:44:11;95299.81;;;1.19;79.66
77702;BME280;66868;42.708;23.404;2023-02-01T05:46:36;95303.81;;;1.27;79.13
77702;BME280;66868;42.708;23.404;2023-02-01T05:49:03;95299.47;;;1.36;77.92
77702;BME280;66868;42.708;23.404;2023-02-01T05:51:28;95280.50;;;1.28;77.86
77702;BME280;66868;42.708;23.404;2023-02-01T05:53:54;95282.28;;;1.23;78.14
77702;BME280;66868;42.708;23.404;2023-02-01T05:56:19;95298.50;;;1.43;77.56
77702;BME280;66868;42.708;23.404;2023-02-01T05:58:45;95278.56;;;1.43;76.70
77702;BME280;66868;42.708;23.404;2023-02-01T06:01:10;95281.09;;;1.40;76.88
77702;BME280;66868;42.708;23.404;2023-02-01T06:03:36;95301.47;;;1.60;76.88
77702;BME280;66868;42.708;23.404;2023-02-01T06:06:02;95301.47;;;1.60;76.52
77702;BME280;66868;42.708;23.404;2023-02-01T06:08:27;95290.69;;;1.58;76.15
77702;BME280;66868;42.708;23.404;2023-02-01T06:11:01;95295.00;;;1.51;75.75
77702;BME280;66868;42.708;23.404;2023-02-01T06:13:26;95286.81;;;1.45;75.96
77702;BME280;66868;42.708;23.404;2023-02-01T06:15:52;95299.91;;;1.56;75.96
77702;BME280;66868;42.708;23.404;2023-02-01T06:18:18;95309.56;;;1.71;75.75
77702;BME280;66868;42.708;23.404;2023-02-01T06:20:43;95309.69;;;1.65;75.61
77702;BME280;66868;42.708;23.404;2023-02-01T06:23:08;95319.78;;;1.59;76.21
77702;BME280;66868;42.708;23.404;2023-02-01T06:25:34;95310.53;;;1.64;76.01
77702;BME280;66868;42.708;23.404;2023-02-01T06:28:00;95305.53;;;1.65;76.39
77702;BME280;66868;42.708;23.404;2023-02-01T06:30:26;95273.63;;;1.40;75.37
77702;BME280;66868;42.708;23.404;2023-02-01T06:32:52;95298.13;;;1.61;75.28
77702;BME280;66868;42.708;23.404;2023-02-01T06:35:20;95306.44;;;1.61;75.72
77702;BME280;66868;42.708;23.404;2023-02-01T06:37:46;95310.41;;;1.70;75.83
77702;BME280;66868;42.708;23.404;2023-02-01T06:40:11;95311.25;;;1.69;75.86
77702;BME280;66868;42.708;23.404;2023-02-01T06:42:37;95313.66;;;1.73;75.87
77702;BME280;66868;42.708;23.404;2023-02-01T06:45:02;95318.53;;;1.80;75.36
77702;BME280;66868;42.708;23.404;2023-02-01T06:47:28;95324.25;;;1.83;75.07
77702;BME280;66868;42.708;23.404;2023-02-01T06:49:53;95311.75;;;1.85;74.85
77702;BME280;66868;42.708;23.404;2023-02-01T06:52:19;95321.44;;;1.98;74.68
77702;BME280;66868;42.708;23.404;2023-02-01T06:54:44;95314.00;;;1.95;74.13
77702;BME280;66868;42.708;23.404;2023-02-01T06:57:09;95331.88;;;2.15;74.02
77702;BME280;66868;42.708;23.404;2023-02-01T06:59:35;95328.44;;;2.19;74.09
77702;BME280;66868;42.708;23.404;2023-02-01T07:02:00;95325.59;;;2.35;73.56
77702;BME280;66868;42.708;23.404;2023-02-01T07:04:26;95281.78;;;2.21;73.43
77702;BME280;66868;42.708;23.404;2023-02-01T07:06:51;95330.31;;;2.45;73.29
77702;BME280;66868;42.708;23.404;2023-02-01T07:09:16;95327.88;;;2.44;72.92
77702;BME280;66868;42.708;23.404;2023-02-01T07:11:42;95347.00;;;2.45;72.66
77702;BME280;66868;42.708;23.404;2023-02-01T07:14:10;95351.94;;;2.48;72.48
77702;BME280;66868;42.708;23.404;2023-02-01T07:16:35;95341.91;;;2.49;72.65
77702;BME280;66868;42.708;23.404;2023-02-01T07:19:01;95357.50;;;2.59;71.89
77702;BME280;66868;42.708;23.404;2023-02-01T07:21:26;95375.84;;;2.58;71.50
77702;BME280;66868;42.708;23.404;2023-02-01T07:23:53;95348.78;;;2.40;72.03
77702;BME280;66868;42.708;23.404;2023-02-01T07:26:19;95365.88;;;2.56;72.25
77702;BME280;66868;42.708;23.404;2023-02-01T07:28:45;95358.97;;;2.66;70.99
77702;BME280;66868;42.708;23.404;2023-02-01T07:31:16;95368.03;;;2.72;70.95
77702;BME280;66868;42.708;23.404;2023-02-01T07:33:44;95354.28;;;2.54;70.93
77702;BME280;66868;42.708;23.404;2023-02-01T07:36:14;95372.53;;;2.56;71.99
77702;BME280;66868;42.708;23.404;2023-02-01T07:38:40;95363.63;;;2.81;74.51
77702;BME280;66868;42.708;23.404;2023-02-01T07:41:06;95368.81;;;3.06;71.17
77702;BME280;66868;42.708;23.404;2023-02-01T07:43:32;95368.75;;;3.09;69.98
77702;BME280;66868;42.708;23.404;2023-02-01T07:45:58;95378.88;;;3.04;70.09
77702;BME280;66868;42.708;23.404;2023-02-01T07:48:24;95366.81;;;2.86;69.98
77702;BME280;66868;42.708;23.404;2023-02-01T07:51:02;95376.75;;;2.89;70.22
77702;BME280;66868;42.708;23.404;2023-02-01T07:53:29;95381.16;;;2.78;70.74
77702;BME280;66868;42.708;23.404;2023-02-01T07:55:54;95324.44;;;2.48;70.31
77702;BME280;66868;42.708;23.404;2023-02-01T07:58:21;95386.28;;;2.74;70.54
77702;BME280;66868;42.708;23.404;2023-02-01T08:00:47;95389.59;;;2.74;71.10
77702;BME280;66868;42.708;23.404;2023-02-01T08:03:30;95374.94;;;2.60;70.78
77702;BME280;66868;42.708;23.404;2023-02-01T08:05:56;95404.34;;;2.85;70.90
77702;BME280;66868;42.708;23.404;2023-02-01T08:08:22;95385.09;;;2.88;70.24
77702;BME280;66868;42.708;23.404;2023-02-01T08:10:47;95398.22;;;2.96;70.06
77702;BME280;66868;42.708;23.404;2023-02-01T08:13:13;95394.28;;;2.88;69.99
77702;BME280;66868;42.708;23.404;2023-02-01T08:15:38;95398.41;;;2.89;70.07
77702;BME280;66868;42.708;23.404;2023-02-01T08:18:04;95300.63;;;2.35;69.78
77702;BME280;66868;42.708;23.404;2023-02-01T08:20:29;95361.66;;;2.92;69.51
77702;BME280;66868;42.708;23.404;2023-02-01T08:22:55;95391.72;;;3.23;69.04
77702;BME280;66868;42.708;23.404;2023-02-01T08:25:21;95383.88;;;3.04;69.23
77702;BME280;66868;42.708;23.404;2023-02-01T08:27:47;95385.03;;;3.24;69.30
77702;BME280;66868;42.708;23.404;2023-02-01T08:30:13;95388.69;;;3.43;68.58
77702;BME280;66868;42.708;23.404;2023-02-01T08:32:38;95411.38;;;3.37;68.70
77702;BME280;66868;42.708;23.404;2023-02-01T08:35:04;95397.34;;;3.31;68.62
77702;BME280;66868;42.708;23.404;2023-02-01T08:37:30;95397.00;;;3.43;68.69
77702;BME280;66868;42.708;23.404;2023-02-01T08:39:56;95380.91;;;3.23;68.63
77702;BME280;66868;42.708;23.404;2023-02-01T08:42:21;95387.94;;;3.39;68.19
77702;BME280;66868;42.708;23.404;2023-02-01T08:45:27;95401.00;;;3.50;67.50
77702;BME280;66868;42.708;23.404;2023-02-01T08:47:54;95400.66;;;3.63;67.27
77702;BME280;66868;42.708;23.404;2023-02-01T08:50:21;95382.25;;;3.65;67.31
77702;BME280;66868;42.708;23.404;2023-02-01T08:52:47;95389.91;;;3.61;66.84
77702;BME280;66868;42.708;23.404;2023-02-01T08:55:13;95394.91;;;3.61;67.12
77702;BME280;66868;42.708;23.404;2023-02-01T08:57:39;95401.59;;;3.60;66.85
77702;BME280;66868;42.708;23.404;2023-02-01T09:00:07;95397.16;;;3.70;66.73
77702;BME280;66868;42.708;23.404;2023-02-01T09:02:35;95386.31;;;3.69;66.08
77702;BME280;66868;42.708;23.404;2023-02-01T09:05:03;95397.38;;;3.91;66.14
77702;BME280;66868;42.708;23.404;2023-02-01T09:07:29;95363.72;;;3.71;66.70
77702;BME280;66868;42.708;23.404;2023-02-01T09:09:54;95414.34;;;3.82;65.99
77702;BME280;66868;42.708;23.404;2023-02-01T09:12:21;95358.13;;;3.63;65.39
77702;BME280;66868;42.708;23.404;2023-02-01T09:14:47;95409.03;;;3.92;65.89
77702;BME280;66868;42.708;23.404;2023-02-01T09:17:12;95410.22;;;4.09;67.64
77702;BME280;66868;42.708;23.404;2023-02-01T09:19:39;95403.22;;;4.20;67.06
77702;BME280;66868;42.708;23.404;2023-02-01T09:22:04;95401.69;;;4.43;66.40
77702;BME280;66868;42.708;23.404;2023-02-01T09:24:29;95419.56;;;4.59;65.08
77702;BME280;66868;42.708;23.404;2023-02-01T09:26:55;95407.03;;;4.59;66.56
77702;BME280;66868;42.708;23.404;2023-02-01T09:29:20;95402.47;;;4.44;63.79
77702;BME280;66868;42.708;23.404;2023-02-01T09:31:46;95415.66;;;4.51;64.38
77702;BME280;66868;42.708;23.404;2023-02-01T09:34:11;95408.88;;;4.54;64.01
77702;BME280;66868;42.708;23.404;2023-02-01T09:36:37;95408.50;;;4.66;64.20
77702;BME280;66868;42.708;23.404;2023-02-01T09:39:02;95391.44;;;4.77;63.10
77702;BME280;66868;42.708;23.404;2023-02-01T09:46:58;95370.00;;;4.41;64.54
77702;BME280;66868;42.708;23.404;2023-02-01T09:49:31;95394.66;;;4.55;63.18
77702;BME280;66868;42.708;23.404;2023-02-01T09:51:59;95352.75;;;4.32;63.03
77702;BME280;66868;42.708;23.404;2023-02-01T09:54:29;95363.84;;;4.51;63.15
77702;BME280;66868;42.708;23.404;2023-02-01T09:57:10;95368.06;;;4.49;63.50
77702;BME280;66868;42.708;23.404;2023-02-01T09:59:44;95356.63;;;4.42;64.37
77702;BME280;66868;42.708;23.404;2023-02-01T10:02:17;95353.81;;;4.51;64.15
77702;BME280;66868;42.708;23.404;2023-02-01T10:04:46;95348.91;;;4.48;62.46
77702;BME280;66868;42.708;23.404;2023-02-01T10:26:18;95341.03;;;4.59;62.84
77702;BME280;66868;42.708;23.404;2023-02-01T10:28:51;95329.34;;;4.59;63.06
77702;BME280;66868;42.708;23.404;2023-02-01T10:31:17;95336.53;;;4.95;61.86
77702;BME280;66868;42.708;23.404;2023-02-01T10:33:49;95300.53;;;4.96;60.99
77702;BME280;66868;42.708;23.404;2023-02-01T10:36:32;95319.63;;;5.00;60.49
77702;BME280;66868;42.708;23.404;2023-02-01T10:39:02;95340.34;;;5.29;60.14
77702;BME280;66868;42.708;23.404;2023-02-01T10:41:39;95315.31;;;5.51;59.75
77702;BME280;66868;42.708;23.404;2023-02-01T10:44:24;95308.72;;;5.72;59.69
77702;BME280;66868;42.708;23.404;2023-02-01T10:46:50;95315.09;;;6.04;58.27
77702;BME280;66868;42.708;23.404;2023-02-01T10:50:02;95304.81;;;6.10;56.60
77702;BME280;66868;42.708;23.404;2023-02-01T10:52:51;95314.22;;;6.05;56.88
77702;BME280;66868;42.708;23.404;2023-02-01T10:55:46;95307.19;;;5.68;57.64
77702;BME280;66868;42.708;23.404;2023-02-01T10:58:16;95318.81;;;5.70;57.66
77702;BME280;66868;42.708;23.404;2023-02-01T11:00:54;95298.41;;;5.56;58.19
77702;BME280;66868;42.708;23.404;2023-02-01T11:06:35;95308.22;;;5.62;57.47
77702;BME280;66868;42.708;23.404;2023-02-01T11:09:11;95303.53;;;5.53;57.79
77702;BME280;66868;42.708;23.404;2023-02-01T11:14:18;95283.47;;;5.75;56.94
77702;BME280;66868;42.708;23.404;2023-02-01T11:16:48;95288.50;;;5.75;57.00
77702;BME280;66868;42.708;23.404;2023-02-01T11:19:16;95302.09;;;5.93;56.71
77702;BME280;66868;42.708;23.404;2023-02-01T11:21:42;95288.53;;;5.97;55.64
77702;BME280;66868;42.708;23.404;2023-02-01T11:24:23;95284.59;;;6.13;54.53
77702;BME280;66868;42.708;23.404;2023-02-01T11:26:50;95306.06;;;6.20;55.04
77702;BME280;66868;42.708;23.404;2023-02-01T11:29:18;95285.22;;;6.18;54.93
77702;BME280;66868;42.708;23.404;2023-02-01T11:31:55;95277.16;;;6.32;55.10
77702;BME280;66868;42.708;23.404;2023-02-01T11:34:25;95298.00;;;6.34;54.93
77702;BME280;66868;42.708;23.404;2023-02-01T11:36:51;95292.84;;;6.58;54.16
77702;BME280;66868;42.708;23.404;2023-02-01T11:39:31;95290.56;;;6.73;54.60
77702;BME280;66868;42.708;23.404;2023-02-01T11:44:40;95270.22;;;6.79;53.54
77702;BME280;66868;42.708;23.404;2023-02-01T11:47:23;95268.63;;;6.76;53.69
77702;BME280;66868;42.708;23.404;2023-02-01T11:49:50;95263.69;;;6.75;54.03
77702;BME280;66868;42.708;23.404;2023-02-01T12:14:08;95250.97;;;6.98;53.90
77702;BME280;66868;42.708;23.404;2023-02-01T12:16:55;95258.69;;;7.32;53.84
77702;BME280;66868;42.708;23.404;2023-02-01T12:30:52;95259.34;;;7.36;52.94
77702;BME280;66868;42.708;23.404;2023-02-01T12:46:46;95239.00;;;7.78;52.06
77702;BME280;66868;42.708;23.404;2023-02-01T12:51:44;95240.63;;;7.79;51.58
77702;BME280;66868;42.708;23.404;2023-02-01T12:56:47;95238.66;;;8.21;50.81
77702;BME280;66868;42.708;23.404;2023-02-01T13:02:20;95245.28;;;8.58;49.15
77702;BME280;66868;42.708;23.404;2023-02-01T13:04:52;95245.97;;;8.45;50.06
77702;BME280;66868;42.708;23.404;2023-02-01T13:07:24;95244.38;;;8.76;49.16
77702;BME280;66868;42.708;23.404;2023-02-01T13:10:12;95247.97;;;8.72;48.01
77702;BME280;66868;42.708;23.404;2023-02-01T13:12:47;95242.69;;;8.77;48.30
77702;BME280;66868;42.708;23.404;2023-02-01T13:18:10;95201.69;;;7.86;49.56
77702;BME280;66868;42.708;23.404;2023-02-01T13:20:47;95225.38;;;8.18;49.63
77702;BME280;66868;42.708;23.404;2023-02-01T13:23:33;95252.81;;;8.60;47.97
77702;BME280;66868;42.708;23.404;2023-02-01T13:25:59;95220.00;;;8.60;47.80
77702;BME280;66868;42.708;23.404;2023-02-01T13:28:36;95239.19;;;8.79;47.95
77702;BME280;66868;42.708;23.404;2023-02-01T13:39:30;95238.25;;;10.70;42.80
77702;BME280;66868;42.708;23.404;2023-02-01T13:42:05;95261.19;;;11.11;42.35
77702;BME280;66868;42.708;23.404;2023-02-01T13:44:41;95226.78;;;10.93;42.74
77702;BME280;66868;42.708;23.404;2023-02-01T13:47:32;95255.84;;;11.16;42.08
77702;BME280;66868;42.708;23.404;2023-02-01T13:50:35;95193.22;;;10.31;43.09
77702;BME280;66868;42.708;23.404;2023-02-01T13:53:13;95227.69;;;11.34;41.45
77702;BME280;66868;42.708;23.404;2023-02-01T13:55:46;95246.06;;;11.52;41.65
77702;BME280;66868;42.708;23.404;2023-02-01T13:58:21;95226.88;;;11.48;41.37
77702;BME280;66868;42.708;23.404;2023-02-01T14:00:49;95247.78;;;12.85;39.13
77702;BME280;66868;42.708;23.404;2023-02-01T14:03:18;95194.75;;;12.81;38.05
77702;BME280;66868;42.708;23.404;2023-02-01T14:08:14;95245.13;;;13.26;36.64
77702;BME280;66868;42.708;23.404;2023-02-01T14:23:46;95226.88;;;10.91;39.92
77702;BME280;66868;42.708;23.404;2023-02-01T14:26:16;95215.16;;;10.60;41.68
77702;BME280;66868;42.708;23.404;2023-02-01T14:31:53;95196.66;;;11.02;40.83
77702;BME280;66868;42.708;23.404;2023-02-01T14:37:00;95195.03;;;10.13;42.92
77702;BME280;66868;42.708;23.404;2023-02-01T14:39:33;95190.81;;;9.98;44.13
77702;BME280;66868;42.708;23.404;2023-02-01T14:42:03;95197.38;;;9.71;44.34
77702;BME280;66868;42.708;23.404;2023-02-01T14:44:34;95206.81;;;9.36;44.29
77702;BME280;66868;42.708;23.404;2023-02-01T14:49:41;95202.22;;;9.11;45.38
77702;BME280;66868;42.708;23.404;2023-02-01T14:52:16;95225.09;;;8.75;45.35
77702;BME280;66868;42.708;23.404;2023-02-01T14:54:46;95212.81;;;8.85;45.24
77702;BME280;66868;42.708;23.404;2023-02-01T14:57:16;95201.72;;;8.37;46.52
77702;BME280;66868;42.708;23.404;2023-02-01T14:59:45;95203.50;;;8.18;46.94
77702;BME280;66868;42.708;23.404;2023-02-01T15:02:26;95206.34;;;8.29;47.42
77702;BME280;66868;42.708;23.404;2023-02-01T15:04:56;95208.75;;;8.14;47.68
77702;BME280;66868;42.708;23.404;2023-02-01T15:07:24;95209.69;;;7.94;48.09
77702;BME280;66868;42.708;23.404;2023-02-01T15:09:52;95205.28;;;7.44;49.56
77702;BME280;66868;42.708;23.404;2023-02-01T15:12:26;95214.66;;;7.41;50.06
77702;BME280;66868;42.708;23.404;2023-02-01T15:15:14;95207.84;;;7.24;50.45
77702;BME280;66868;42.708;23.404;2023-02-01T15:17:41;95212.50;;;6.94;51.01
77702;BME280;66868;42.708;23.404;2023-02-01T15:20:16;95196.38;;;6.80;51.79
77702;BME280;66868;42.708;23.404;2023-02-01T15:22:52;95212.06;;;6.85;51.98
77702;BME280;66868;42.708;23.404;2023-02-01T15:25:27;95142.34;;;6.29;52.24
77702;BME280;66868;42.708;23.404;2023-02-01T15:27:53;95157.44;;;6.09;52.55
77702;BME280;66868;42.708;23.404;2023-02-01T15:30:34;95154.41;;;6.01;53.21
77702;BME280;66868;42.708;23.404;2023-02-01T15:33:16;95193.19;;;6.36;55.64
77702;BME280;66868;42.708;23.404;2023-02-01T15:35:44;95197.81;;;6.25;55.29
77702;BME280;66868;42.708;23.404;2023-02-01T15:41:23;95197.13;;;6.21;53.91
77702;BME280;66868;42.708;23.404;2023-02-01T15:46:35;95217.63;;;5.90;54.98
77702;BME280;66868;42.708;23.404;2023-02-01T15:49:01;95159.94;;;5.45;54.77
77702;BME280;66868;42.708;23.404;2023-02-01T15:51:29;95214.34;;;5.66;55.07
77702;BME280;66868;42.708;23.404;2023-02-01T15:54:04;95197.63;;;5.44;55.60
77702;BME280;66868;42.708;23.404;2023-02-01T15:56:36;95202.03;;;5.37;56.05